Главная страница
METAR-TAF:

METAR-TAF

Аэропорты :

Астрахань, Россия

Нариманово

широта: 46-17N, долгота: 048-00-23E, высота над уровнем моря: 0 м

Текущие метеонаблюдения

Эта сводка был подготовлена 26 минут назад, в 07:00 UTC
Ветер 21 Узел от юго-восточный
Температура 21°C
Влажность 25%
Давление 1024 hPa
Видимость 10 км и более
Нет облачности ниже 1500 м, и нет кучево-дождевой облачности

METAR: URWA 290700Z 14011MPS CAVOK 21/00 Q1024 R09/010070 NOSIG RMK QFE770/1027

Время: 10:26 (07:26 UTC)

Прогноз

Эта сводка был подготовлена 5 часа и 26 минут назад, в 02:00 UTC
Прогноз действительный с 29-го 03 UTC до 29-го 12 UTC
Ветер 23 Узел от юго-восточный с порывами до 35 Узел
Видимость 10 км и более
Отдельные облака на высоте 3000 фута
временами
С 29-го 03 UTC до 29-го 06 UTC
Ветер 14 Узел от восточно-юго-восточный с порывами до 23 Узел

TAF: URWA 290200Z 2903/2912 14012G18MPS 9999 SCT030 TEMPO 2903/2906 12007G12MPS

Метеонаблюдения и прогнозы для более 4000 аэропортов (сводки METAR и TAF).

Имеющиеся станции представлены на карте желтыми и красными точками.

Чтобы увидеть название станции, наведите на нее мышь.

Затем щелкните, чтобы увидеть метеонаблюдения и метеопрогнозы.

Управление картой: чтобы увеличить масштаб, щелкните зеленые кнопки с черным крестиком; чтобы уменьшить масштаб, щелкните зеленую кнопку с тире; для просмотра соседних карт щелкайте зеленые стрелки.


METAR-TAF: